createdAt,value
2018-08-12T00:00:24.811Z,100280.00
2018-08-12T00:02:54.902Z,100283.00
2018-08-12T00:05:23.985Z,100276.00
2018-08-12T00:07:53.217Z,100277.00
2018-08-12T00:10:23.268Z,100275.00
2018-08-12T00:12:52.569Z,100284.00
2018-08-12T00:15:22.814Z,100276.00
2018-08-12T00:17:52.058Z,100275.00
2018-08-12T00:20:22.601Z,100271.00
2018-08-12T00:22:52.253Z,100272.00
2018-08-12T00:25:28.455Z,100276.00
2018-08-12T00:27:57.752Z,100272.00
2018-08-12T00:30:27.037Z,100272.00
2018-08-12T00:32:56.431Z,100263.00
2018-08-12T00:35:25.708Z,100267.00
2018-08-12T00:37:54.775Z,100270.00
2018-08-12T00:40:23.986Z,100270.00
2018-08-12T00:42:53.216Z,100269.00
2018-08-12T00:45:22.395Z,100259.00
2018-08-12T00:47:51.511Z,100267.00
2018-08-12T00:50:20.668Z,100261.00
2018-08-12T00:52:49.636Z,100258.00
2018-08-12T00:55:18.961Z,100250.00
2018-08-12T00:57:48.490Z,100246.00
2018-08-12T01:00:20.783Z,100244.00
2018-08-12T01:02:50.019Z,100251.00
2018-08-12T01:05:19.629Z,100250.00
2018-08-12T01:07:49.798Z,100250.00
2018-08-12T01:10:19.632Z,100247.00
2018-08-12T01:12:48.871Z,100257.00
2018-08-12T01:15:21.306Z,100259.00
2018-08-12T01:17:50.591Z,100249.00
2018-08-12T01:20:25.194Z,100246.00
2018-08-12T01:22:54.146Z,100248.00
2018-08-12T01:25:23.422Z,100242.00
2018-08-12T01:27:52.645Z,100238.00
2018-08-12T01:30:22.663Z,100235.00
2018-08-12T01:32:52.049Z,100240.00
2018-08-12T01:35:21.416Z,100240.00
2018-08-12T01:37:50.679Z,100244.00
2018-08-12T01:40:20.522Z,100243.00
2018-08-12T01:42:49.522Z,100236.00
2018-08-12T01:45:19.676Z,100234.00
2018-08-12T01:47:48.660Z,100234.00
2018-08-12T01:50:18.975Z,100234.00
2018-08-12T01:52:47.924Z,100244.00
2018-08-12T01:55:17.370Z,100235.00
2018-08-12T01:57:46.611Z,100230.00
2018-08-12T02:00:18.765Z,100238.00
2018-08-12T02:02:48.441Z,100228.00
2018-08-12T02:05:18.089Z,100229.00
2018-08-12T02:07:47.437Z,100226.00
2018-08-12T02:10:16.674Z,100232.00
2018-08-12T02:12:45.898Z,100226.00
2018-08-12T02:15:15.104Z,100221.00
2018-08-12T02:17:44.099Z,100220.00
2018-08-12T02:20:13.587Z,100221.00
2018-08-12T02:22:43.222Z,100222.00
2018-08-12T02:25:12.664Z,100227.00
2018-08-12T02:27:41.914Z,100224.00
2018-08-12T02:30:13.245Z,100223.00
2018-08-12T02:32:43.385Z,100217.00
2018-08-12T02:35:12.650Z,100219.00
2018-08-12T02:37:42.452Z,100220.00
2018-08-12T02:40:11.741Z,100213.00
2018-08-12T02:42:40.965Z,100215.00
2018-08-12T02:45:12.156Z,100208.00
2018-08-12T02:47:41.376Z,100214.00
2018-08-12T02:50:10.605Z,100203.00
2018-08-12T02:52:39.829Z,100210.00
2018-08-12T02:55:10.490Z,100203.00
2018-08-12T02:57:39.771Z,100199.00
2018-08-12T03:00:10.968Z,100198.00
2018-08-12T03:02:40.214Z,100191.00
2018-08-12T03:05:09.437Z,100192.00
2018-08-12T03:07:38.671Z,100187.00
2018-08-12T03:10:08.601Z,100186.00
2018-08-12T03:12:38.137Z,100185.00
2018-08-12T03:15:09.036Z,100182.00
2018-08-12T03:17:38.512Z,100186.00
2018-08-12T03:20:10.433Z,100185.00
2018-08-12T03:22:39.700Z,100175.00
2018-08-12T03:25:10.126Z,100180.00
2018-08-12T03:27:39.735Z,100175.00
2018-08-12T03:30:10.073Z,100168.00
2018-08-12T03:32:39.428Z,100169.00
2018-08-12T03:35:08.651Z,100174.00
2018-08-12T03:37:37.861Z,100170.00
2018-08-12T03:40:10.352Z,100167.00
2018-08-12T03:42:39.320Z,100171.00
2018-08-12T03:45:09.067Z,100166.00
2018-08-12T03:47:38.343Z,100171.00
2018-08-12T03:50:08.949Z,100167.00
2018-08-12T03:52:38.441Z,100173.00
2018-08-12T03:55:08.180Z,100171.00
2018-08-12T03:57:37.480Z,100164.00
2018-08-12T04:00:14.598Z,100161.00
2018-08-12T04:02:43.887Z,100158.00
2018-08-12T04:05:13.175Z,100161.00
2018-08-12T04:07:42.677Z,100159.00
2018-08-12T04:10:11.994Z,100162.00
2018-08-12T04:12:41.361Z,100165.00
2018-08-12T04:15:11.812Z,100165.00
2018-08-12T04:17:41.926Z,100168.00
2018-08-12T04:20:11.928Z,100167.00
2018-08-12T04:22:41.766Z,100157.00
2018-08-12T04:25:10.756Z,100159.00
2018-08-12T04:27:39.972Z,100154.00
2018-08-12T04:30:10.328Z,100154.00
2018-08-12T04:32:39.682Z,100160.00
2018-08-12T04:35:09.315Z,100155.00
2018-08-12T04:37:38.573Z,100147.00
2018-08-12T04:40:08.279Z,100147.00
2018-08-12T04:42:37.514Z,100143.00
2018-08-12T04:45:07.059Z,100145.00
2018-08-12T04:47:36.373Z,100142.00
2018-08-12T04:50:06.707Z,100146.00
2018-08-12T04:52:35.986Z,100144.00
2018-08-12T04:55:05.451Z,100152.00
2018-08-12T04:57:34.733Z,100145.00
2018-08-12T05:00:04.083Z,100143.00
2018-08-12T05:02:33.371Z,100143.00
2018-08-12T05:05:02.599Z,100138.00
2018-08-12T05:07:31.644Z,100141.00
2018-08-12T05:10:00.866Z,100146.00
2018-08-12T05:12:30.132Z,100140.00
2018-08-12T05:14:59.394Z,100140.00
2018-08-12T05:17:28.672Z,100137.00
2018-08-12T05:19:57.694Z,100137.00
2018-08-12T05:22:26.880Z,100137.00
2018-08-12T05:24:55.816Z,100142.00
2018-08-12T05:27:25.058Z,100138.00
2018-08-12T05:29:54.243Z,100140.00
2018-08-12T05:32:23.453Z,100132.00
2018-08-12T05:34:52.670Z,100128.00
2018-08-12T05:37:21.678Z,100136.00
2018-08-12T05:39:50.969Z,100136.00
2018-08-12T05:42:20.227Z,100130.00
2018-08-12T05:44:49.494Z,100119.00
2018-08-12T05:47:18.490Z,100123.00
2018-08-12T05:49:47.704Z,100117.00
2018-08-12T05:52:16.941Z,100121.00
2018-08-12T05:54:46.161Z,100120.00
2018-08-12T05:57:15.409Z,100116.00
2018-08-12T05:59:44.628Z,100111.00
2018-08-12T06:02:13.820Z,100118.00
2018-08-12T06:04:43.066Z,100128.00
2018-08-12T06:07:12.262Z,100124.00
2018-08-12T06:09:41.245Z,100129.00
2018-08-12T06:12:10.440Z,100129.00
2018-08-12T06:14:39.696Z,100126.00
2018-08-12T06:17:08.926Z,100127.00
2018-08-12T06:19:38.156Z,100120.00
2018-08-12T06:22:07.373Z,100123.00
2018-08-12T06:24:36.633Z,100119.00
2018-08-12T06:27:05.929Z,100120.00
2018-08-12T06:29:35.161Z,100117.00
2018-08-12T06:32:04.433Z,100117.00
2018-08-12T06:34:33.653Z,100124.00
2018-08-12T06:37:02.841Z,100123.00
2018-08-12T06:39:32.032Z,100116.00
2018-08-12T06:42:01.267Z,100129.00
2018-08-12T06:44:30.530Z,100125.00
2018-08-12T06:46:59.845Z,100126.00
2018-08-12T06:49:29.734Z,100132.00
2018-08-12T06:51:59.056Z,100129.00
2018-08-12T06:54:28.289Z,100128.00
2018-08-12T06:56:57.557Z,100120.00
2018-08-12T06:59:26.724Z,100127.00
2018-08-12T07:01:55.934Z,100122.00
2018-08-12T07:04:25.197Z,100120.00
2018-08-12T07:06:54.433Z,100116.00
2018-08-12T07:09:23.457Z,100112.00
2018-08-12T07:11:52.832Z,100114.00
2018-08-12T07:14:22.186Z,100109.00
2018-08-12T07:16:51.431Z,100115.00
2018-08-12T07:19:20.676Z,100111.00
2018-08-12T07:21:49.967Z,100113.00
2018-08-12T07:24:19.025Z,100113.00
2018-08-12T07:26:48.305Z,100118.00
2018-08-12T07:29:17.302Z,100115.00
2018-08-12T07:31:46.567Z,100121.00
2018-08-12T07:34:16.037Z,100111.00
2018-08-12T07:36:45.284Z,100121.00
2018-08-12T07:39:14.726Z,100114.00
2018-08-12T07:41:44.200Z,100121.00
2018-08-12T07:44:13.798Z,100120.00
2018-08-12T07:46:43.207Z,100116.00
2018-08-12T07:49:12.168Z,100115.00
2018-08-12T07:51:41.419Z,100113.00
2018-08-12T07:54:10.721Z,100112.00
2018-08-12T07:56:39.956Z,100111.00
2018-08-12T07:59:09.270Z,100111.00
2018-08-12T08:01:38.516Z,100105.00
2018-08-12T08:04:07.470Z,100108.00
2018-08-12T08:06:36.476Z,100111.00
2018-08-12T08:09:09.749Z,100109.00
2018-08-12T08:11:39.034Z,100114.00
2018-08-12T08:14:08.413Z,100109.00
2018-08-12T08:16:37.608Z,100102.00
2018-08-12T08:19:06.954Z,100110.00
2018-08-12T08:21:36.230Z,100101.00
2018-08-12T08:24:05.569Z,100096.00
2018-08-12T08:26:34.958Z,100106.00
2018-08-12T08:29:04.148Z,100103.00
2018-08-12T08:31:33.502Z,100107.00
2018-08-12T08:34:02.790Z,100106.00
2018-08-12T08:36:31.771Z,100099.00
2018-08-12T08:39:00.751Z,100095.00
2018-08-12T08:41:30.084Z,100093.00
2018-08-12T08:43:59.377Z,100099.00
2018-08-12T08:46:28.622Z,100090.00
2018-08-12T08:48:57.628Z,100088.00
2018-08-12T08:51:26.829Z,100085.00
2018-08-12T08:53:56.005Z,100090.00
2018-08-12T08:56:25.283Z,100091.00
2018-08-12T08:58:54.601Z,100085.00
2018-08-12T09:01:23.857Z,100077.00
2018-08-12T09:03:53.095Z,100078.00
2018-08-12T09:06:22.412Z,100073.00
2018-08-12T09:08:51.979Z,100076.00
2018-08-12T09:11:21.133Z,100069.00
2018-08-12T09:13:50.157Z,100066.00
2018-08-12T09:16:19.400Z,100054.00
2018-08-12T09:18:48.595Z,100058.00
2018-08-12T09:21:17.801Z,100050.00
2018-08-12T09:23:47.015Z,100054.00
2018-08-12T09:26:16.269Z,100054.00
2018-08-12T09:28:45.525Z,100043.00
2018-08-12T09:31:14.961Z,100042.00
2018-08-12T09:33:43.977Z,100041.00
2018-08-12T09:36:13.239Z,100043.00
2018-08-12T09:38:42.255Z,100043.00
2018-08-12T09:41:11.272Z,100025.00
2018-08-12T09:43:40.244Z,100033.00
2018-08-12T09:46:09.495Z,100030.00
2018-08-12T09:48:38.751Z,100029.00
2018-08-12T09:51:08.078Z,100030.00
2018-08-12T09:53:37.033Z,100020.00
2018-08-12T09:56:06.016Z,100017.00
2018-08-12T09:58:35.343Z,100013.00
2018-08-12T10:01:04.618Z,100013.00
2018-08-12T10:03:33.833Z,100001.00
2018-08-12T10:06:03.106Z,100001.00
2018-08-12T10:08:32.317Z,100004.00
2018-08-12T10:11:01.573Z,99998.00
2018-08-12T10:13:30.890Z,99994.00
2018-08-12T10:16:00.259Z,99991.00
2018-08-12T10:18:29.585Z,99986.00
2018-08-12T10:20:58.775Z,99982.00
2018-08-12T10:23:27.749Z,99976.00
2018-08-12T10:25:56.964Z,99974.00
2018-08-12T10:28:26.257Z,99973.00
2018-08-12T10:30:55.490Z,99959.00
2018-08-12T10:33:24.521Z,99959.00
2018-08-12T10:35:53.793Z,99955.00
2018-08-12T10:38:22.981Z,99955.00
2018-08-12T10:40:52.175Z,99953.00
2018-08-12T10:43:21.377Z,99942.00
2018-08-12T10:45:50.620Z,99940.00
2018-08-12T10:48:19.857Z,99939.00
2018-08-12T10:50:49.072Z,99941.00
2018-08-12T10:53:18.376Z,99935.00
2018-08-12T10:55:47.654Z,99923.00
2018-08-12T10:58:16.916Z,99928.00
2018-08-12T11:00:46.149Z,99934.00
2018-08-12T11:03:15.394Z,99922.00
2018-08-12T11:05:44.620Z,99920.00
2018-08-12T11:08:13.865Z,99919.00
2018-08-12T11:10:43.147Z,99917.00
2018-08-12T11:13:12.440Z,99909.00
2018-08-12T11:15:41.651Z,99903.00
2018-08-12T11:18:10.917Z,99885.00
2018-08-12T11:20:40.191Z,99900.00
2018-08-12T11:23:09.494Z,99898.00
2018-08-12T11:25:38.427Z,99887.00
2018-08-12T11:28:07.730Z,99887.00
2018-08-12T11:30:36.755Z,99885.00
2018-08-12T11:33:06.102Z,99881.00
2018-08-12T11:35:35.519Z,99878.00
2018-08-12T11:38:04.750Z,99883.00
2018-08-12T11:40:34.010Z,99875.00
2018-08-12T11:43:03.256Z,99872.00
2018-08-12T11:45:32.491Z,99863.00
2018-08-12T11:48:01.747Z,99856.00
2018-08-12T11:50:30.993Z,99855.00
2018-08-12T11:53:00.286Z,99849.00
2018-08-12T11:55:29.516Z,99846.00
2018-08-12T11:57:58.780Z,99831.00
2018-08-12T12:00:27.819Z,99838.00
2018-08-12T12:02:57.123Z,99842.00
2018-08-12T12:05:26.320Z,99837.00
2018-08-12T12:07:55.560Z,99841.00
2018-08-12T12:10:24.790Z,99832.00
2018-08-12T12:12:54.480Z,99828.00
2018-08-12T12:15:23.740Z,99825.00
2018-08-12T12:17:52.984Z,99821.00
2018-08-12T12:20:22.198Z,99817.00
2018-08-12T12:22:51.248Z,99821.00
2018-08-12T12:25:21.325Z,99821.00
2018-08-12T12:27:50.518Z,99821.00
2018-08-12T12:30:20.825Z,99807.00
2018-08-12T12:32:51.262Z,99811.00
2018-08-12T12:35:20.502Z,99808.00
2018-08-12T12:37:49.954Z,99797.00
2018-08-12T12:40:19.734Z,99799.00
2018-08-12T12:42:49.005Z,99796.00
2018-08-12T12:45:18.491Z,99791.00
2018-08-12T12:47:47.897Z,99795.00
2018-08-12T12:50:19.625Z,99789.00
2018-08-12T12:52:56.012Z,99789.00
2018-08-12T12:55:25.686Z,99789.00
2018-08-12T12:57:55.044Z,99793.00
2018-08-12T13:00:24.293Z,99785.00
2018-08-12T13:02:53.838Z,99783.00
2018-08-12T13:05:23.513Z,99778.00
2018-08-12T13:07:53.524Z,99767.00
2018-08-12T13:10:22.757Z,99769.00
2018-08-12T13:12:52.046Z,99757.00
2018-08-12T13:15:21.425Z,99756.00
2018-08-12T13:17:50.629Z,99753.00
2018-08-12T13:20:21.097Z,99746.00
2018-08-12T13:22:50.707Z,99749.00
2018-08-12T13:25:21.756Z,99743.00
2018-08-12T13:27:51.027Z,99740.00
2018-08-12T13:30:21.187Z,99735.00
2018-08-12T13:32:50.872Z,99737.00
2018-08-12T13:35:20.167Z,99728.00
2018-08-12T13:37:49.442Z,99733.00
2018-08-12T13:43:16.061Z,99722.00
2018-08-12T13:45:45.313Z,99719.00
2018-08-12T13:48:14.630Z,99716.00
2018-08-12T13:50:43.840Z,99718.00
2018-08-12T13:53:12.964Z,99713.00
2018-08-12T13:55:41.993Z,99705.00
2018-08-12T13:58:14.322Z,99707.00
2018-08-12T14:00:43.681Z,99692.00
2018-08-12T14:03:12.715Z,99695.00
2018-08-12T14:05:41.908Z,99694.00
2018-08-12T14:08:10.860Z,99690.00
2018-08-12T14:13:38.169Z,99686.00
2018-08-12T14:16:14.287Z,99674.00
2018-08-12T14:18:43.516Z,99667.00
2018-08-12T14:21:13.046Z,99661.00
2018-08-12T14:23:42.282Z,99652.00
2018-08-12T14:26:11.476Z,99647.00
2018-08-12T14:28:40.648Z,99648.00
2018-08-12T14:31:09.899Z,99641.00
2018-08-12T14:33:39.159Z,99634.00
2018-08-12T14:36:08.446Z,99643.00
2018-08-12T14:38:37.681Z,99637.00
2018-08-12T14:41:06.999Z,99635.00
2018-08-12T14:43:36.377Z,99635.00
2018-08-12T14:46:05.886Z,99622.00
2018-08-12T14:48:35.155Z,99619.00
2018-08-12T14:51:04.466Z,99615.00
2018-08-12T14:53:33.798Z,99613.00
2018-08-12T14:56:03.030Z,99610.00
2018-08-12T14:58:32.100Z,99610.00
2018-08-12T15:01:01.349Z,99615.00
2018-08-12T15:03:30.601Z,99611.00
2018-08-12T15:05:59.618Z,99616.00
2018-08-12T15:08:28.887Z,99604.00
2018-08-12T15:10:57.867Z,99591.00
2018-08-12T15:13:27.254Z,99592.00
2018-08-12T15:15:56.662Z,99586.00
2018-08-12T15:18:25.930Z,99597.00
2018-08-12T15:20:55.197Z,99589.00
2018-08-12T15:23:24.434Z,99587.00
2018-08-12T15:25:53.674Z,99590.00
2018-08-12T15:28:22.931Z,99591.00
2018-08-12T15:30:52.198Z,99579.00
2018-08-12T15:33:21.180Z,99581.00
2018-08-12T15:35:50.373Z,99583.00
2018-08-12T15:38:19.540Z,99577.00
2018-08-12T15:40:48.779Z,99573.00
2018-08-12T15:43:18.347Z,99563.00
2018-08-12T15:45:47.378Z,99562.00
2018-08-12T15:48:27.930Z,99565.00
2018-08-12T15:50:57.146Z,99561.00
2018-08-12T15:53:26.658Z,99552.00
2018-08-12T15:55:56.285Z,99549.00
2018-08-12T15:58:38.141Z,99545.00
2018-08-12T16:01:08.034Z,99542.00
2018-08-12T16:03:37.462Z,99544.00
2018-08-12T16:06:07.188Z,99537.00
2018-08-12T16:08:36.477Z,99528.00
2018-08-12T16:11:06.179Z,99528.00
2018-08-12T16:13:35.891Z,99528.00
2018-08-12T16:16:05.303Z,99523.00
2018-08-12T16:18:35.161Z,99520.00
2018-08-12T16:21:04.703Z,99509.00
2018-08-12T16:23:34.191Z,99517.00
2018-08-12T16:26:04.526Z,99517.00
2018-08-12T16:28:33.832Z,99510.00
2018-08-12T16:31:17.396Z,99508.00
2018-08-12T16:33:46.671Z,99506.00
2018-08-12T16:36:15.855Z,99504.00
2018-08-12T16:38:45.428Z,99506.00
2018-08-12T16:41:19.079Z,99504.00
2018-08-12T16:43:48.291Z,99496.00
2018-08-12T16:46:32.590Z,99487.00
2018-08-12T16:49:02.086Z,99483.00
2018-08-12T16:51:31.899Z,99480.00
2018-08-12T16:54:01.166Z,99482.00
2018-08-12T16:56:30.658Z,99476.00
2018-08-12T16:58:59.919Z,99475.00
2018-08-12T17:01:29.188Z,99472.00
2018-08-12T17:03:58.929Z,99472.00
2018-08-12T17:06:28.194Z,99462.00
2018-08-12T17:08:57.457Z,99463.00
2018-08-12T17:11:26.658Z,99459.00
2018-08-12T17:13:56.231Z,99459.00
2018-08-12T17:16:25.481Z,99450.00
2018-08-12T17:18:54.653Z,99449.00
2018-08-12T17:21:24.269Z,99451.00
2018-08-12T17:23:55.340Z,99452.00
2018-08-12T17:26:24.879Z,99440.00
2018-08-12T17:28:54.460Z,99446.00
2018-08-12T17:31:24.211Z,99437.00
2018-08-12T17:33:53.807Z,99439.00
2018-08-12T17:36:23.215Z,99432.00
2018-08-12T17:38:52.720Z,99438.00
2018-08-12T17:41:22.104Z,99437.00
2018-08-12T17:43:51.572Z,99433.00
2018-08-12T17:49:01.802Z,99431.00
2018-08-12T17:51:31.528Z,99429.00
2018-08-12T17:54:01.504Z,99432.00
2018-08-12T17:56:31.384Z,99428.00
2018-08-12T17:59:01.223Z,99407.00
2018-08-12T18:01:30.827Z,99427.00
2018-08-12T18:04:00.211Z,99426.00
2018-08-12T18:06:29.781Z,99419.00
2018-08-12T18:08:59.383Z,99419.00
2018-08-12T18:11:29.067Z,99421.00
2018-08-12T18:13:58.788Z,99415.00
2018-08-12T18:16:28.116Z,99420.00
2018-08-12T18:18:57.801Z,99417.00
2018-08-12T18:21:27.074Z,99418.00
2018-08-12T18:24:00.675Z,99415.00
2018-08-12T18:26:31.564Z,99413.00
2018-08-12T18:29:01.197Z,99407.00
2018-08-12T18:31:30.799Z,99407.00
2018-08-12T18:34:04.069Z,99407.00
2018-08-12T18:36:33.455Z,99410.00
2018-08-12T18:39:03.431Z,99404.00
2018-08-12T18:41:33.051Z,99399.00
2018-08-12T18:44:02.993Z,99403.00
2018-08-12T18:46:32.631Z,99407.00
2018-08-12T18:49:02.160Z,99401.00
2018-08-12T18:51:31.486Z,99400.00
2018-08-12T18:54:01.301Z,99405.00
2018-08-12T18:56:31.352Z,99408.00
2018-08-12T18:59:01.169Z,99418.00
2018-08-12T19:01:31.255Z,99416.00
2018-08-12T19:04:00.406Z,99413.00
2018-08-12T19:06:29.733Z,99411.00
2018-08-12T19:08:58.949Z,99414.00
2018-08-12T19:11:28.527Z,99410.00
2018-08-12T19:13:58.116Z,99404.00
2018-08-12T19:16:27.747Z,99406.00
2018-08-12T19:18:57.380Z,99405.00
2018-08-12T19:21:26.535Z,99404.00
2018-08-12T19:23:55.796Z,99401.00
2018-08-12T19:26:25.260Z,99399.00
2018-08-12T19:28:54.929Z,99392.00
2018-08-12T19:31:24.474Z,99389.00
2018-08-12T19:33:54.152Z,99392.00
2018-08-12T19:36:23.776Z,99394.00
2018-08-12T19:38:53.320Z,99390.00
2018-08-12T19:41:23.055Z,99386.00
2018-08-12T19:43:52.581Z,99391.00
2018-08-12T19:51:41.885Z,99389.00
2018-08-12T19:54:11.549Z,99390.00
2018-08-12T19:56:40.728Z,99391.00
2018-08-12T19:59:09.935Z,99399.00
2018-08-12T20:01:39.442Z,99389.00
2018-08-12T20:04:08.704Z,99394.00
2018-08-12T20:06:37.936Z,99394.00
2018-08-12T20:09:10.867Z,99387.00
2018-08-12T20:11:40.219Z,99388.00
2018-08-12T20:14:10.410Z,99388.00
2018-08-12T20:16:40.445Z,99390.00
2018-08-12T20:19:09.769Z,99389.00
2018-08-12T20:21:39.251Z,99391.00
2018-08-12T20:24:08.629Z,99387.00
2018-08-12T20:26:37.839Z,99385.00
2018-08-12T20:29:07.341Z,99377.00
2018-08-12T20:31:36.944Z,99380.00
2018-08-12T20:34:06.240Z,99373.00
2018-08-12T20:36:35.448Z,99374.00
2018-08-12T20:39:12.247Z,99378.00
2018-08-12T20:41:42.627Z,99366.00
2018-08-12T20:44:12.064Z,99365.00
2018-08-12T20:46:41.365Z,99361.00
2018-08-12T20:49:11.114Z,99366.00
2018-08-12T20:51:40.538Z,99357.00
2018-08-12T20:54:10.216Z,99361.00
2018-08-12T20:56:39.862Z,99355.00
2018-08-12T20:59:09.239Z,99354.00
2018-08-12T21:01:39.655Z,99357.00
2018-08-12T21:04:09.459Z,99353.00
2018-08-12T21:06:39.224Z,99348.00
2018-08-12T21:09:11.753Z,99348.00
2018-08-12T21:11:42.253Z,99348.00
2018-08-12T21:14:11.686Z,99347.00
2018-08-12T21:16:41.067Z,99354.00
2018-08-12T21:19:10.349Z,99346.00
2018-08-12T21:21:39.626Z,99344.00
2018-08-12T21:24:09.071Z,99335.00
2018-08-12T21:26:38.322Z,99345.00
2018-08-12T21:29:07.578Z,99334.00
2018-08-12T21:31:37.112Z,99337.00
2018-08-12T21:34:06.814Z,99338.00
2018-08-12T21:36:36.443Z,99327.00
2018-08-12T21:39:12.283Z,99320.00
2018-08-12T21:41:41.839Z,99329.00
2018-08-12T21:44:11.146Z,99325.00
2018-08-12T21:46:40.420Z,99322.00
2018-08-12T21:49:09.939Z,99327.00
2018-08-12T21:51:39.421Z,99319.00
2018-08-12T21:54:09.062Z,99314.00
2018-08-12T21:56:38.374Z,99315.00
2018-08-12T21:59:08.076Z,99311.00
2018-08-12T22:01:37.708Z,99308.00
2018-08-12T22:04:07.271Z,99314.00
2018-08-12T22:06:36.929Z,99305.00
2018-08-12T22:09:09.660Z,99311.00
2018-08-12T22:11:38.984Z,99297.00
2018-08-12T22:14:08.553Z,99292.00
2018-08-12T22:16:38.186Z,99289.00
2018-08-12T22:19:07.559Z,99294.00
2018-08-12T22:21:37.162Z,99286.00
2018-08-12T22:24:06.546Z,99285.00
2018-08-12T22:26:35.856Z,99288.00
2018-08-12T22:29:05.104Z,99286.00
2018-08-12T22:31:34.473Z,99284.00
2018-08-12T22:34:03.733Z,99281.00
2018-08-12T22:36:33.300Z,99288.00
2018-08-12T22:39:02.974Z,99281.00
2018-08-12T22:41:33.240Z,99280.00
2018-08-12T22:44:02.969Z,99272.00
2018-08-12T22:46:32.572Z,99279.00
2018-08-12T22:49:01.812Z,99281.00
2018-08-12T22:51:31.557Z,99267.00
2018-08-12T22:54:01.157Z,99265.00
2018-08-12T22:56:30.604Z,99269.00
2018-08-12T22:59:00.608Z,99267.00
2018-08-12T23:01:30.323Z,99263.00
2018-08-12T23:03:59.873Z,99259.00
2018-08-12T23:06:29.651Z,99256.00
2018-08-12T23:08:58.884Z,99259.00
2018-08-12T23:11:28.430Z,99260.00
2018-08-12T23:13:57.990Z,99252.00
2018-08-12T23:16:38.354Z,99250.00
2018-08-12T23:19:08.180Z,99245.00
2018-08-12T23:21:37.801Z,99241.00
2018-08-12T23:24:07.444Z,99249.00
2018-08-12T23:26:36.720Z,99243.00
2018-08-12T23:29:06.073Z,99249.00
2018-08-12T23:31:35.347Z,99235.00
2018-08-12T23:34:04.649Z,99235.00
2018-08-12T23:36:33.871Z,99236.00
2018-08-12T23:39:03.977Z,99230.00
2018-08-12T23:41:33.689Z,99224.00
2018-08-12T23:44:03.678Z,99222.00
2018-08-12T23:46:33.522Z,99214.00
2018-08-12T23:49:03.158Z,99227.00
2018-08-12T23:51:32.836Z,99227.00
2018-08-12T23:54:02.611Z,99221.00
2018-08-12T23:56:32.312Z,99226.00
2018-08-12T23:59:02.025Z,99222.00
